createdAt,value
2018-11-02T00:02:21.429Z,6.00
2018-11-02T00:04:49.993Z,6.00
2018-11-02T00:07:18.529Z,6.10
2018-11-02T00:09:47.090Z,6.10
2018-11-02T00:12:16.821Z,6.10
2018-11-02T00:14:45.761Z,6.10
2018-11-02T00:17:15.637Z,6.20
2018-11-02T00:19:44.130Z,6.20
2018-11-02T00:22:12.674Z,6.10
2018-11-02T00:24:41.186Z,6.00
2018-11-02T00:27:09.702Z,6.10
2018-11-02T00:38:17.450Z,6.00
2018-11-02T00:40:46.055Z,6.10
2018-11-02T00:48:11.801Z,6.00
2018-11-02T00:50:40.299Z,5.80
2018-11-02T00:53:08.776Z,5.80
2018-11-02T01:01:32.325Z,5.90
2018-11-02T01:04:00.868Z,5.90
2018-11-02T01:06:29.859Z,5.90
2018-11-02T01:08:58.879Z,5.90
2018-11-02T01:11:27.397Z,6.00
2018-11-02T01:13:55.939Z,6.00
2018-11-02T01:16:24.546Z,6.00
2018-11-02T01:18:53.137Z,6.00
2018-11-02T01:21:21.697Z,5.90
2018-11-02T01:23:56.742Z,5.90
2018-11-02T01:26:25.287Z,5.80
2018-11-02T01:28:53.900Z,5.80
2018-11-02T01:31:22.685Z,5.80
2018-11-02T01:33:52.657Z,5.80
2018-11-02T01:36:21.219Z,5.80
2018-11-02T01:38:50.973Z,5.80
2018-11-02T01:41:19.487Z,5.80
2018-11-02T01:43:48.019Z,5.80
2018-11-02T01:46:17.431Z,5.90
2018-11-02T01:48:45.930Z,5.90
2018-11-02T01:56:13.132Z,5.90
2018-11-02T01:58:41.655Z,5.90
2018-11-02T02:01:10.240Z,5.80
2018-11-02T02:03:38.794Z,5.80
2018-11-02T02:06:07.329Z,5.80
2018-11-02T02:08:35.975Z,5.90
2018-11-02T02:11:04.894Z,5.90
2018-11-02T02:13:34.224Z,5.90
2018-11-02T02:16:02.763Z,5.90
2018-11-02T02:18:31.923Z,5.90
2018-11-02T02:21:00.469Z,5.80
2018-11-02T02:23:29.059Z,5.80
2018-11-02T02:25:57.601Z,5.80
2018-11-02T02:28:26.089Z,5.90
2018-11-02T02:30:54.577Z,5.90
2018-11-02T02:33:23.126Z,5.90
2018-11-02T02:35:52.383Z,5.90
2018-11-02T02:38:20.887Z,5.90
2018-11-02T02:40:49.930Z,5.90
2018-11-02T02:43:18.472Z,5.90
2018-11-02T02:45:46.962Z,6.00
2018-11-02T02:53:12.780Z,6.00
2018-11-02T02:55:41.321Z,6.00
2018-11-02T02:58:09.854Z,6.10
2018-11-02T03:06:36.244Z,6.00
2018-11-02T03:09:06.393Z,6.10
2018-11-02T03:11:34.902Z,6.10
2018-11-02T03:14:03.486Z,6.10
2018-11-02T03:16:32.067Z,6.00
2018-11-02T03:19:00.612Z,6.00
2018-11-02T03:21:29.510Z,5.90
2018-11-02T03:23:58.100Z,5.90
2018-11-02T03:26:26.638Z,6.00
2018-11-02T03:28:55.190Z,5.90
2018-11-02T03:31:23.722Z,5.90
2018-11-02T03:33:52.648Z,6.00
2018-11-02T03:36:21.778Z,5.90
2018-11-02T03:38:50.269Z,5.90
2018-11-02T03:41:18.793Z,5.80
2018-11-02T03:43:47.629Z,5.70
2018-11-02T03:46:16.482Z,5.70
2018-11-02T03:48:45.166Z,5.70
2018-11-02T03:51:14.609Z,5.70
2018-11-02T03:53:43.209Z,5.60
2018-11-02T03:56:11.806Z,5.60
2018-11-02T03:58:40.372Z,5.60
2018-11-02T04:01:08.908Z,5.60
2018-11-02T04:09:23.511Z,5.70
2018-11-02T04:11:51.949Z,5.70
2018-11-02T04:14:20.475Z,5.70
2018-11-02T04:16:49.640Z,5.70
2018-11-02T04:19:18.142Z,5.70
2018-11-02T04:21:47.645Z,5.80
2018-11-02T04:24:18.302Z,5.80
2018-11-02T04:26:46.846Z,5.80
2018-11-02T04:34:13.816Z,5.70
2018-11-02T04:36:43.220Z,5.60
2018-11-02T04:39:12.966Z,5.60
2018-11-02T04:41:42.260Z,5.60
2018-11-02T04:44:11.485Z,5.60
2018-11-02T04:46:40.153Z,5.60
2018-11-02T04:49:09.172Z,5.70
2018-11-02T04:57:39.649Z,5.70
2018-11-02T05:00:09.801Z,5.70
2018-11-02T05:02:38.394Z,5.60
2018-11-02T05:05:07.002Z,5.70
2018-11-02T05:07:35.571Z,5.70
2018-11-02T05:10:04.307Z,5.70
2018-11-02T05:12:32.846Z,5.70
2018-11-02T05:15:01.381Z,5.80
2018-11-02T05:17:29.934Z,5.80
2018-11-02T05:19:58.418Z,5.70
2018-11-02T05:22:27.610Z,5.70
2018-11-02T05:24:56.127Z,5.80
2018-11-02T05:27:24.678Z,5.70
2018-11-02T05:29:53.263Z,5.70
2018-11-02T05:32:21.790Z,5.70
2018-11-02T05:34:50.368Z,5.70
2018-11-02T05:37:20.150Z,5.70
2018-11-02T05:39:49.730Z,5.70
2018-11-02T05:42:18.389Z,5.70
2018-11-02T05:44:47.313Z,5.70
2018-11-02T05:47:16.589Z,5.80
2018-11-02T05:49:45.546Z,5.70
2018-11-02T05:57:09.530Z,5.80
2018-11-02T05:59:38.030Z,5.70
2018-11-02T06:02:07.173Z,5.70
2018-11-02T06:04:35.767Z,5.70
2018-11-02T06:07:04.298Z,5.70
2018-11-02T06:09:32.818Z,5.70
2018-11-02T06:12:01.364Z,5.70
2018-11-02T06:14:31.598Z,5.60
2018-11-02T06:17:00.158Z,5.60
2018-11-02T06:19:29.494Z,5.60
2018-11-02T06:21:58.294Z,5.70
2018-11-02T06:24:26.880Z,5.70
2018-11-02T06:26:56.611Z,5.70
2018-11-02T06:29:25.426Z,5.70
2018-11-02T06:31:53.945Z,5.70
2018-11-02T06:34:22.482Z,5.70
2018-11-02T06:36:51.003Z,5.80
2018-11-02T06:39:20.211Z,5.80
2018-11-02T06:41:48.750Z,5.80
2018-11-02T06:44:18.366Z,5.90
2018-11-02T06:46:46.946Z,5.90
2018-11-02T06:49:17.023Z,6.00
2018-11-02T06:51:45.972Z,6.00
2018-11-02T06:59:12.085Z,6.10
2018-11-02T07:01:40.608Z,6.20
2018-11-02T07:04:09.187Z,6.10
2018-11-02T07:06:38.446Z,6.10
2018-11-02T07:09:09.384Z,6.10
2018-11-02T07:11:38.487Z,6.20
2018-11-02T07:14:07.586Z,6.20
2018-11-02T07:16:36.102Z,6.30
2018-11-02T07:19:04.576Z,6.30
2018-11-02T07:21:33.415Z,6.40
2018-11-02T07:24:01.935Z,6.50
2018-11-02T07:26:30.439Z,6.50
2018-11-02T07:28:59.310Z,6.60
2018-11-02T07:31:28.435Z,6.70
2018-11-02T07:33:56.978Z,6.80
2018-11-02T07:36:25.590Z,6.70
2018-11-02T07:38:54.131Z,6.80
2018-11-02T07:41:25.201Z,6.70
2018-11-02T07:43:53.886Z,6.70
2018-11-02T07:46:22.410Z,6.80
2018-11-02T07:48:50.942Z,6.80
2018-11-02T07:51:19.591Z,6.90
2018-11-02T07:53:48.051Z,7.00
2018-11-02T07:56:17.836Z,7.10
2018-11-02T07:58:46.627Z,7.30
2018-11-02T08:01:16.590Z,7.50
2018-11-02T08:03:45.369Z,7.70
2018-11-02T08:06:14.826Z,7.80
2018-11-02T08:08:43.361Z,8.00
2018-11-02T08:11:12.204Z,8.10
2018-11-02T08:13:40.817Z,8.20
2018-11-02T08:16:09.322Z,8.30
2018-11-02T08:18:37.842Z,8.50
2018-11-02T08:21:06.448Z,8.60
2018-11-02T08:23:35.445Z,8.80
2018-11-02T08:26:04.060Z,9.00
2018-11-02T08:28:32.650Z,9.20
2018-11-02T08:31:01.175Z,9.40
2018-11-02T08:33:29.755Z,9.70
2018-11-02T08:35:58.495Z,10.10
2018-11-02T08:38:27.607Z,10.60
2018-11-02T08:40:56.113Z,11.10
2018-11-02T08:43:25.451Z,11.60
2018-11-02T08:45:56.669Z,12.20
2018-11-02T08:48:25.222Z,12.60
2018-11-02T08:50:53.766Z,13.00
2018-11-02T08:53:22.550Z,13.40
2018-11-02T08:55:51.093Z,13.60
2018-11-02T08:58:19.783Z,13.40
2018-11-02T09:00:48.226Z,13.30
2018-11-02T09:03:17.479Z,13.30
2018-11-02T09:05:46.017Z,13.30
2018-11-02T09:08:15.617Z,13.30
2018-11-02T09:10:44.933Z,13.10
2018-11-02T09:13:13.555Z,13.10
2018-11-02T09:15:42.118Z,12.90
2018-11-02T09:18:11.022Z,13.00
2018-11-02T09:20:40.509Z,13.00
2018-11-02T09:23:08.993Z,13.00
2018-11-02T09:25:37.511Z,12.90
2018-11-02T09:28:06.271Z,12.90
2018-11-02T09:30:34.729Z,13.00
2018-11-02T09:33:03.272Z,13.00
2018-11-02T09:35:31.879Z,13.00
2018-11-02T09:38:00.443Z,13.10
2018-11-02T09:40:29.005Z,13.10
2018-11-02T09:42:57.893Z,13.10
2018-11-02T09:45:28.018Z,13.10
2018-11-02T09:47:56.538Z,13.00
2018-11-02T09:50:25.095Z,12.90
2018-11-02T09:52:53.572Z,13.00
2018-11-02T09:55:22.083Z,13.00
2018-11-02T09:57:50.783Z,13.10
2018-11-02T10:00:19.141Z,13.20
2018-11-02T10:02:47.666Z,13.30
2018-11-02T10:05:16.550Z,13.20
2018-11-02T10:07:45.110Z,13.20
2018-11-02T10:10:14.548Z,13.20
2018-11-02T10:12:43.169Z,13.10
2018-11-02T10:15:14.096Z,13.10
2018-11-02T10:17:42.670Z,13.20
2018-11-02T10:20:11.782Z,13.20
2018-11-02T10:22:40.372Z,13.40
2018-11-02T10:25:09.858Z,13.30
2018-11-02T10:36:17.590Z,13.40
2018-11-02T10:38:46.265Z,13.50
2018-11-02T10:41:19.825Z,13.40
2018-11-02T10:43:48.822Z,13.50
2018-11-02T10:46:18.824Z,13.50
2018-11-02T10:48:47.392Z,13.40
2018-11-02T10:51:16.716Z,13.40
2018-11-02T10:53:45.265Z,13.40
2018-11-02T10:56:14.871Z,13.40
2018-11-02T10:58:43.533Z,13.40
2018-11-02T11:01:17.460Z,13.40
2018-11-02T11:03:46.234Z,13.40
2018-11-02T11:11:15.252Z,13.20
2018-11-02T11:13:44.226Z,13.20
2018-11-02T11:16:12.659Z,12.90
2018-11-02T11:18:41.276Z,12.90
2018-11-02T11:21:09.927Z,12.80
2018-11-02T11:29:36.099Z,12.40
2018-11-02T11:32:05.118Z,12.30
2018-11-02T11:34:33.649Z,12.10
2018-11-02T11:37:02.196Z,12.00
2018-11-02T11:39:30.863Z,12.00
2018-11-02T11:41:59.434Z,12.00
2018-11-02T11:44:28.242Z,12.00
2018-11-02T11:46:57.197Z,12.00
2018-11-02T11:49:26.115Z,12.10
2018-11-02T11:51:54.859Z,12.00
2018-11-02T11:54:23.405Z,11.80
2018-11-02T11:56:52.692Z,11.70
2018-11-02T11:59:21.321Z,11.60
2018-11-02T12:01:49.911Z,11.60
2018-11-02T12:04:18.529Z,11.50
2018-11-02T12:06:47.256Z,11.50
2018-11-02T12:09:17.426Z,11.50
2018-11-02T12:11:46.117Z,11.50
2018-11-02T12:19:13.550Z,11.50
2018-11-02T12:21:42.095Z,11.40
2018-11-02T12:24:10.647Z,11.30
2018-11-02T12:26:39.506Z,11.30
2018-11-02T12:29:08.003Z,11.30
2018-11-02T12:31:36.576Z,11.30
2018-11-02T12:34:05.454Z,11.30
2018-11-02T12:36:33.949Z,11.30
2018-11-02T12:39:03.195Z,11.50
2018-11-02T12:41:31.818Z,11.50
2018-11-02T12:44:00.593Z,11.60
2018-11-02T12:46:36.030Z,11.70
2018-11-02T12:49:05.762Z,11.90
2018-11-02T12:51:34.058Z,12.00
2018-11-02T12:54:02.640Z,12.10
2018-11-02T12:56:31.175Z,12.00
2018-11-02T12:58:59.693Z,12.00
2018-11-02T13:01:28.234Z,12.00
2018-11-02T13:03:56.750Z,12.00
2018-11-02T13:06:25.278Z,12.00
2018-11-02T13:08:54.470Z,12.00
2018-11-02T13:11:23.193Z,11.90
2018-11-02T13:13:51.815Z,11.80
2018-11-02T13:16:20.354Z,11.70
2018-11-02T13:18:48.882Z,11.70
2018-11-02T13:21:17.413Z,11.70
2018-11-02T13:23:45.934Z,11.70
2018-11-02T13:31:15.633Z,11.80
2018-11-02T13:33:44.201Z,11.80
2018-11-02T13:36:13.846Z,11.80
2018-11-02T13:38:42.398Z,11.80
2018-11-02T13:41:10.958Z,11.90
2018-11-02T13:43:39.611Z,11.90
2018-11-02T13:46:08.015Z,11.90
2018-11-02T13:48:36.528Z,11.90
2018-11-02T13:51:06.071Z,11.80
2018-11-02T13:53:34.802Z,11.70
2018-11-02T13:56:03.767Z,11.70
2018-11-02T13:58:32.320Z,11.80
2018-11-02T14:01:00.911Z,11.80
2018-11-02T14:03:29.463Z,11.80
2018-11-02T14:05:58.429Z,11.80
2018-11-02T14:08:27.057Z,11.80
2018-11-02T14:10:55.697Z,11.80
2018-11-02T14:13:24.635Z,11.70
2018-11-02T14:15:53.510Z,11.70
2018-11-02T14:18:23.404Z,11.60
2018-11-02T14:20:53.338Z,11.60
2018-11-02T14:23:21.851Z,11.60
2018-11-02T14:25:50.376Z,11.50
2018-11-02T14:28:18.906Z,11.40
2018-11-02T14:42:19.217Z,11.10
2018-11-02T14:44:47.802Z,11.00
2018-11-02T14:47:17.441Z,11.00
2018-11-02T14:49:46.365Z,11.00
2018-11-02T14:57:16.437Z,11.00
2018-11-02T14:59:45.081Z,11.00
2018-11-02T15:02:13.675Z,11.00
2018-11-02T15:04:42.286Z,11.10
2018-11-02T15:07:10.862Z,11.00
2018-11-02T15:09:40.123Z,11.00
2018-11-02T15:12:09.039Z,11.00
2018-11-02T15:14:38.479Z,10.90
2018-11-02T15:17:08.901Z,10.90
2018-11-02T15:19:37.442Z,10.90
2018-11-02T15:22:06.413Z,10.90
2018-11-02T15:24:34.936Z,10.90
2018-11-02T15:27:03.549Z,10.80
2018-11-02T15:29:32.078Z,10.80
2018-11-02T15:32:00.592Z,10.70
2018-11-02T15:34:29.449Z,10.60
2018-11-02T15:36:57.946Z,10.50
2018-11-02T15:39:26.478Z,10.40
2018-11-02T15:41:55.089Z,10.50
2018-11-02T15:44:23.643Z,10.50
2018-11-02T15:46:52.174Z,10.50
2018-11-02T15:49:20.731Z,10.40
2018-11-02T15:51:50.120Z,10.40
2018-11-02T15:54:19.298Z,10.30
2018-11-02T15:56:48.338Z,10.20
2018-11-02T15:59:17.468Z,10.20
2018-11-02T16:01:46.018Z,10.10
2018-11-02T16:09:11.250Z,10.00
2018-11-02T16:11:39.794Z,9.90
2018-11-02T16:14:08.592Z,9.70
2018-11-02T16:16:37.726Z,9.70
2018-11-02T16:19:06.338Z,9.70
2018-11-02T16:21:35.186Z,9.70
2018-11-02T16:24:03.752Z,9.70
2018-11-02T16:26:32.258Z,9.70
2018-11-02T16:29:00.775Z,9.80
2018-11-02T16:31:29.361Z,9.70
2018-11-02T16:33:57.937Z,9.70
2018-11-02T16:36:26.425Z,9.70
2018-11-02T16:38:55.723Z,9.80
2018-11-02T16:41:24.237Z,9.80
2018-11-02T16:43:52.782Z,9.80
2018-11-02T16:46:22.336Z,9.80
2018-11-02T16:48:50.850Z,9.70
2018-11-02T16:51:20.849Z,9.70
2018-11-02T16:53:49.435Z,9.80
2018-11-02T16:56:18.624Z,9.80
2018-11-02T16:58:47.309Z,9.80
2018-11-02T17:01:16.622Z,9.90
2018-11-02T17:03:45.193Z,9.90
2018-11-02T17:06:15.922Z,9.90
2018-11-02T17:08:44.722Z,9.90
2018-11-02T17:11:13.278Z,9.90
2018-11-02T17:13:42.427Z,9.90
2018-11-02T17:16:11.164Z,9.90
2018-11-02T17:18:39.840Z,9.90
2018-11-02T17:21:08.499Z,9.90
2018-11-02T17:23:37.720Z,9.90
2018-11-02T17:26:06.958Z,9.90
2018-11-02T17:28:35.872Z,9.90
2018-11-02T17:31:05.652Z,9.90
2018-11-02T17:33:34.519Z,9.90
2018-11-02T17:36:05.386Z,9.90
2018-11-02T17:38:33.990Z,9.90
2018-11-02T17:41:02.514Z,10.00
2018-11-02T17:43:31.049Z,10.00
2018-11-02T17:46:00.906Z,10.00
2018-11-02T17:48:29.993Z,9.90
2018-11-02T17:50:58.484Z,9.90
2018-11-02T17:53:27.180Z,9.90
2018-11-02T17:55:55.659Z,9.90
2018-11-02T17:58:25.543Z,9.80
2018-11-02T18:00:54.085Z,9.80
2018-11-02T18:03:22.565Z,9.80
2018-11-02T18:05:51.093Z,9.80
2018-11-02T18:08:20.152Z,9.70
2018-11-02T18:10:48.701Z,9.80
2018-11-02T18:13:17.414Z,9.70
2018-11-02T18:15:45.961Z,9.70
2018-11-02T18:23:07.374Z,9.60
2018-11-02T18:25:35.966Z,9.60
2018-11-02T18:28:04.878Z,9.60
2018-11-02T18:30:34.221Z,9.60
2018-11-02T18:33:02.749Z,9.60
2018-11-02T18:35:31.324Z,9.60
2018-11-02T18:37:59.798Z,9.60
2018-11-02T18:40:28.382Z,9.60
2018-11-02T18:42:56.918Z,9.60
2018-11-02T18:45:25.487Z,9.60
2018-11-02T18:47:54.079Z,9.60
2018-11-02T18:50:23.094Z,9.60
2018-11-02T18:52:52.026Z,9.60
2018-11-02T18:55:20.958Z,9.60
2018-11-02T18:57:49.510Z,9.70
2018-11-02T19:00:19.162Z,9.60
2018-11-02T19:02:48.203Z,9.60
2018-11-02T19:05:18.692Z,9.60
2018-11-02T19:07:47.278Z,9.60
2018-11-02T19:10:16.538Z,9.60
2018-11-02T19:12:45.685Z,9.60
2018-11-02T19:15:17.919Z,9.70
2018-11-02T19:17:46.521Z,9.70
2018-11-02T19:20:17.044Z,9.60
2018-11-02T19:22:45.724Z,9.60
2018-11-02T19:25:16.827Z,9.60
2018-11-02T19:27:46.041Z,9.50
2018-11-02T19:35:12.661Z,9.50
2018-11-02T19:37:41.012Z,9.50
2018-11-02T19:40:11.739Z,9.60
2018-11-02T19:42:45.686Z,9.60
2018-11-02T19:45:15.604Z,9.50
2018-11-02T19:47:49.420Z,9.40
2018-11-02T19:50:19.439Z,9.40
2018-11-02T19:52:47.986Z,9.30
2018-11-02T19:55:18.709Z,9.30
2018-11-02T19:57:47.165Z,9.30
2018-11-02T20:00:17.144Z,9.20
2018-11-02T20:02:46.877Z,9.20
2018-11-02T20:05:17.832Z,9.20
2018-11-02T20:07:46.377Z,9.20
2018-11-02T20:20:08.222Z,9.20
2018-11-02T20:22:37.000Z,9.20
2018-11-02T20:25:06.467Z,9.20
2018-11-02T20:27:34.993Z,9.10
2018-11-02T20:30:03.678Z,9.10
2018-11-02T20:32:32.328Z,9.10
2018-11-02T20:35:01.465Z,9.00
2018-11-02T20:37:30.491Z,9.10
2018-11-02T20:39:59.205Z,9.10
2018-11-02T20:42:28.293Z,9.10
2018-11-02T20:44:57.104Z,9.00
2018-11-02T20:47:25.663Z,9.10
2018-11-02T20:49:54.274Z,9.10
2018-11-02T20:52:22.785Z,9.10
2018-11-02T20:54:51.496Z,9.00
2018-11-02T20:57:21.556Z,9.00
2018-11-02T20:59:51.470Z,9.20
2018-11-02T21:02:20.256Z,9.20
2018-11-02T21:04:51.403Z,9.20
2018-11-02T21:07:20.044Z,9.30
2018-11-02T21:09:48.893Z,9.30
2018-11-02T21:12:18.663Z,9.30
2018-11-02T21:14:47.274Z,9.40
2018-11-02T21:17:17.195Z,9.30
2018-11-02T21:19:45.827Z,9.30
2018-11-02T21:22:15.656Z,9.40
2018-11-02T21:24:44.239Z,9.50
2018-11-02T21:27:12.810Z,9.50
2018-11-02T21:41:12.428Z,9.50
2018-11-02T21:43:41.634Z,9.50
2018-11-02T21:46:10.166Z,9.40
2018-11-02T21:48:38.690Z,9.40
2018-11-02T21:51:07.258Z,9.40
2018-11-02T21:53:35.822Z,9.40
2018-11-02T21:56:04.339Z,9.40
2018-11-02T21:58:32.955Z,9.40
2018-11-02T22:01:01.398Z,9.40
2018-11-02T22:03:29.882Z,9.40
2018-11-02T22:06:00.166Z,9.40
2018-11-02T22:08:28.583Z,9.30
2018-11-02T22:10:57.094Z,9.30
2018-11-02T22:13:25.666Z,9.20
2018-11-02T22:15:55.210Z,9.20
2018-11-02T22:18:24.267Z,9.30
2018-11-02T22:20:52.852Z,9.30
2018-11-02T22:23:21.436Z,9.20
2018-11-02T22:25:49.967Z,9.20
2018-11-02T22:28:18.686Z,9.20
2018-11-02T22:30:47.199Z,9.20
2018-11-02T22:33:17.474Z,9.30
2018-11-02T22:35:46.011Z,9.20
2018-11-02T22:38:15.538Z,9.20
2018-11-02T22:40:44.052Z,9.30
2018-11-02T22:43:12.588Z,9.20
2018-11-02T22:45:41.107Z,9.30
2018-11-02T22:48:15.241Z,9.30
2018-11-02T22:50:43.790Z,9.20
2018-11-02T22:53:12.388Z,9.20
2018-11-02T22:55:40.970Z,9.30
2018-11-02T22:58:09.517Z,9.40
2018-11-02T23:00:43.394Z,9.40
2018-11-02T23:03:11.918Z,9.40
2018-11-02T23:05:40.498Z,9.40
2018-11-02T23:08:09.631Z,9.40
2018-11-02T23:10:38.182Z,9.40
2018-11-02T23:13:07.373Z,9.40
2018-11-02T23:15:35.909Z,9.40
2018-11-02T23:18:04.438Z,9.40
2018-11-02T23:20:32.939Z,9.40
2018-11-02T23:23:01.467Z,9.50
2018-11-02T23:25:29.990Z,9.40
2018-11-02T23:27:58.485Z,9.30
2018-11-02T23:30:27.642Z,9.40
2018-11-02T23:32:56.140Z,9.40
2018-11-02T23:35:24.655Z,9.40
2018-11-02T23:37:53.186Z,9.40
2018-11-02T23:40:21.715Z,9.30
2018-11-02T23:42:50.297Z,9.20
2018-11-02T23:45:18.866Z,9.30
2018-11-02T23:47:52.671Z,9.30
2018-11-02T23:50:21.662Z,9.20
2018-11-02T23:52:50.213Z,9.10
2018-11-02T23:55:18.751Z,9.00
2018-11-02T23:57:47.310Z,9.00
